NPV7592 LIPX-LGKO
Flight info
| Callsign | NPV7592 |
|---|---|
| Flight time | 2h 4m |
| Altitude | 35000 |
| Route | ITEFE T558 LUMAV DCT TORPO DCT RODON DCT PINDO/N0394F230 L607 ATV R19 KOPAR |
| Aircraft | A321/M-SDE3FGHIRWY/LB1 |
Departure
| Time | 2026-04-30 12:38 |
|---|---|
| Airport | Verona Villafranca Valerio Catullo Airport (LIPX) |
Arrival
| Time | 2026-04-30 14:42 |
|---|---|
| Airport | Kos International Airport "Ippokratis" (LGKO) |
| Time | Latitude | Longitude | Altitude | Speed | Heading |
|---|---|---|---|---|---|
| 2026-04-30 12:11 | 45.40248 | 10.90512 | 237 ft | 0 kts | 135° |
| 2026-04-30 12:25 | 45.40249 | 10.90510 | 237 ft | 2 kts | 135° |
| 2026-04-30 12:25 | 45.40266 | 10.90486 | 237 ft | 4 kts | 146° |
| 2026-04-30 12:25 | 45.40288 | 10.90476 | 237 ft | 4 kts | 196° |
| 2026-04-30 12:26 | 45.40307 | 10.90491 | 237 ft | 1 kts | 226° |
| 2026-04-30 12:26 | 45.40308 | 10.90491 | 237 ft | 0 kts | 226° |
| 2026-04-30 12:28 | 45.40297 | 10.90476 | 237 ft | 6 kts | 226° |
| 2026-04-30 12:28 | 45.40266 | 10.90429 | 237 ft | 6 kts | 233° |
| 2026-04-30 12:29 | 45.40267 | 10.90380 | 237 ft | 6 kts | 291° |
| 2026-04-30 12:29 | 45.40293 | 10.90332 | 237 ft | 5 kts | 312° |
| 2026-04-30 12:29 | 45.40315 | 10.90297 | 236 ft | 4 kts | 312° |
| 2026-04-30 12:29 | 45.40334 | 10.90267 | 236 ft | 5 kts | 309° |
| 2026-04-30 12:30 | 45.40320 | 10.90162 | 236 ft | 19 kts | 254° |
| 2026-04-30 12:30 | 45.40293 | 10.90007 | 238 ft | 0 kts | 255° |
| 2026-04-30 12:30 | 45.40291 | 10.89982 | 238 ft | 8 kts | 266° |
| 2026-04-30 12:30 | 45.40344 | 10.89873 | 238 ft | 20 kts | 314° |
| 2026-04-30 12:31 | 45.40414 | 10.89745 | 237 ft | 13 kts | 271° |
| 2026-04-30 12:31 | 45.40379 | 10.89683 | 237 ft | 10 kts | 227° |
| 2026-04-30 12:31 | 45.40296 | 10.89559 | 237 ft | 25 kts | 225° |
| 2026-04-30 12:31 | 45.40140 | 10.89334 | 237 ft | 36 kts | 225° |
| 2026-04-30 12:32 | 45.39971 | 10.89088 | 237 ft | 34 kts | 225° |
| 2026-04-30 12:32 | 45.39808 | 10.88849 | 237 ft | 33 kts | 225° |
| 2026-04-30 12:32 | 45.39652 | 10.88623 | 237 ft | 31 kts | 225° |
| 2026-04-30 12:32 | 45.39503 | 10.88406 | 237 ft | 30 kts | 225° |
| 2026-04-30 12:33 | 45.39361 | 10.88199 | 237 ft | 29 kts | 226° |
| 2026-04-30 12:33 | 45.39226 | 10.88001 | 237 ft | 27 kts | 226° |
| 2026-04-30 12:33 | 45.39097 | 10.87814 | 238 ft | 26 kts | 225° |
| 2026-04-30 12:33 | 45.38975 | 10.87637 | 238 ft | 24 kts | 225° |
| 2026-04-30 12:34 | 45.38888 | 10.87510 | 238 ft | 8 kts | 224° |
| 2026-04-30 12:34 | 45.38850 | 10.87506 | 238 ft | 5 kts | 150° |
| 2026-04-30 12:34 | 45.38843 | 10.87514 | 238 ft | 0 kts | 139° |
| 2026-04-30 12:35 | 45.38815 | 10.87550 | 238 ft | 12 kts | 137° |
| 2026-04-30 12:35 | 45.38757 | 10.87632 | 239 ft | 11 kts | 127° |
| 2026-04-30 12:36 | 45.38781 | 10.87705 | 239 ft | 8 kts | 43° |
| 2026-04-30 12:36 | 45.38786 | 10.87712 | 239 ft | 0 kts | 44° |
| 2026-04-30 12:36 | 45.38789 | 10.87716 | 239 ft | 4 kts | 44° |
| 2026-04-30 12:37 | 45.38950 | 10.87952 | 240 ft | 69 kts | 45° |
| 2026-04-30 12:37 | 45.39434 | 10.88655 | 240 ft | 129 kts | 45° |
| 2026-04-30 12:37 | 45.40182 | 10.89745 | 253 ft | 172 kts | 45° |
| 2026-04-30 12:37 | 45.41027 | 10.90957 | 804 ft | 170 kts | 51° |
| 2026-04-30 12:38 | 45.41477 | 10.92433 | 1401 ft | 166 kts | 88° |
| 2026-04-30 12:38 | 45.41157 | 10.93961 | 2058 ft | 161 kts | 128° |
| 2026-04-30 12:38 | 45.40263 | 10.94890 | 2683 ft | 165 kts | 160° |
| 2026-04-30 12:38 | 45.39103 | 10.95078 | 3239 ft | 169 kts | 172° |
| 2026-04-30 12:39 | 45.37921 | 10.95264 | 3627 ft | 176 kts | 162° |
| 2026-04-30 12:39 | 45.36794 | 10.96112 | 3777 ft | 194 kts | 135° |
| 2026-04-30 12:39 | 45.35739 | 10.97502 | 3913 ft | 218 kts | 136° |
| 2026-04-30 12:39 | 45.34481 | 10.98949 | 4093 ft | 248 kts | 140° |
| 2026-04-30 12:40 | 45.33095 | 11.00501 | 4714 ft | 257 kts | 139° |
| 2026-04-30 12:40 | 45.31669 | 11.02105 | 5406 ft | 264 kts | 139° |
| 2026-04-30 12:40 | 45.30217 | 11.03742 | 6078 ft | 268 kts | 139° |
| 2026-04-30 12:40 | 45.28745 | 11.05412 | 6786 ft | 273 kts | 138° |
| 2026-04-30 12:41 | 45.27254 | 11.07112 | 7477 ft | 277 kts | 138° |
| 2026-04-30 12:41 | 45.25744 | 11.08834 | 8164 ft | 280 kts | 137° |
| 2026-04-30 12:41 | 45.24236 | 11.10589 | 8862 ft | 282 kts | 137° |
| 2026-04-30 12:41 | 45.22727 | 11.12395 | 9554 ft | 285 kts | 136° |
| 2026-04-30 12:42 | 45.21214 | 11.14228 | 10236 ft | 288 kts | 137° |
| 2026-04-30 12:42 | 45.19665 | 11.16105 | 10602 ft | 302 kts | 136° |
| 2026-04-30 12:42 | 45.18019 | 11.18107 | 10758 ft | 321 kts | 136° |
| 2026-04-30 12:42 | 45.16271 | 11.20223 | 10898 ft | 340 kts | 137° |
| 2026-04-30 12:43 | 45.14430 | 11.22439 | 11175 ft | 353 kts | 137° |
| 2026-04-30 12:43 | 45.12542 | 11.24707 | 11695 ft | 358 kts | 137° |
| 2026-04-30 12:43 | 45.10629 | 11.26995 | 12251 ft | 362 kts | 137° |
| 2026-04-30 12:43 | 45.08693 | 11.29299 | 12815 ft | 366 kts | 137° |
| 2026-04-30 12:44 | 45.06736 | 11.31632 | 13377 ft | 370 kts | 138° |
| 2026-04-30 12:44 | 45.04757 | 11.33993 | 13943 ft | 374 kts | 138° |
| 2026-04-30 12:44 | 45.02762 | 11.36379 | 14465 ft | 378 kts | 138° |
| 2026-04-30 12:44 | 45.00740 | 11.38794 | 14953 ft | 382 kts | 139° |
| 2026-04-30 12:45 | 44.98693 | 11.41237 | 15430 ft | 388 kts | 138° |
| 2026-04-30 12:45 | 44.96621 | 11.43709 | 15933 ft | 391 kts | 138° |
| 2026-04-30 12:45 | 44.94525 | 11.46194 | 16419 ft | 395 kts | 139° |
| 2026-04-30 12:45 | 44.92412 | 11.48696 | 16913 ft | 399 kts | 139° |
| 2026-04-30 12:46 | 44.90274 | 11.51221 | 17392 ft | 402 kts | 139° |
| 2026-04-30 12:46 | 44.88148 | 11.53732 | 17853 ft | 405 kts | 139° |
| 2026-04-30 12:46 | 44.85979 | 11.56299 | 18322 ft | 409 kts | 139° |
| 2026-04-30 12:46 | 44.83790 | 11.58884 | 18769 ft | 412 kts | 139° |
| 2026-04-30 12:47 | 44.81728 | 11.61700 | 19175 ft | 414 kts | 129° |
| 2026-04-30 12:47 | 44.80028 | 11.64956 | 19579 ft | 414 kts | 119° |
| 2026-04-30 12:47 | 44.78552 | 11.68455 | 19992 ft | 417 kts | 119° |
| 2026-04-30 12:47 | 44.77063 | 11.71978 | 20408 ft | 420 kts | 119° |
| 2026-04-30 12:48 | 44.75562 | 11.75510 | 20829 ft | 422 kts | 119° |
| 2026-04-30 12:48 | 44.74043 | 11.79067 | 21242 ft | 425 kts | 119° |
| 2026-04-30 12:48 | 44.72516 | 11.82638 | 21632 ft | 428 kts | 119° |
| 2026-04-30 12:48 | 44.70981 | 11.86229 | 22023 ft | 430 kts | 119° |
| 2026-04-30 12:49 | 44.69434 | 11.89855 | 22422 ft | 433 kts | 118° |
| 2026-04-30 12:49 | 44.67878 | 11.93496 | 22813 ft | 436 kts | 119° |
| 2026-04-30 12:49 | 44.66310 | 11.97151 | 23197 ft | 438 kts | 119° |
| 2026-04-30 12:49 | 44.64726 | 12.00829 | 23585 ft | 441 kts | 119° |
| 2026-04-30 12:50 | 44.63132 | 12.04524 | 23945 ft | 443 kts | 119° |
| 2026-04-30 12:50 | 44.61532 | 12.08232 | 24244 ft | 446 kts | 119° |
| 2026-04-30 12:50 | 44.59919 | 12.11972 | 24552 ft | 449 kts | 119° |
| 2026-04-30 12:50 | 44.58300 | 12.15725 | 24843 ft | 451 kts | 119° |
| 2026-04-30 12:51 | 44.56666 | 12.19505 | 25133 ft | 453 kts | 119° |
| 2026-04-30 12:51 | 44.55581 | 12.22016 | 25315 ft | 455 kts | 119° |
| 2026-04-30 12:51 | 44.53935 | 12.25823 | 25602 ft | 458 kts | 119° |
| 2026-04-30 12:51 | 44.52276 | 12.29653 | 25894 ft | 461 kts | 119° |
| 2026-04-30 12:52 | 44.50606 | 12.33508 | 26175 ft | 463 kts | 119° |
| 2026-04-30 12:52 | 44.48928 | 12.37369 | 26448 ft | 466 kts | 120° |
| 2026-04-30 12:52 | 44.47238 | 12.41251 | 26733 ft | 468 kts | 120° |
| 2026-04-30 12:52 | 44.45535 | 12.45157 | 27010 ft | 471 kts | 120° |
| 2026-04-30 12:53 | 44.43824 | 12.49078 | 27278 ft | 473 kts | 120° |
| 2026-04-30 12:53 | 44.42103 | 12.53015 | 27541 ft | 476 kts | 120° |
| 2026-04-30 12:53 | 44.40369 | 12.56973 | 27796 ft | 479 kts | 120° |
| 2026-04-30 12:53 | 44.38618 | 12.60956 | 28046 ft | 481 kts | 120° |
| 2026-04-30 12:54 | 44.36860 | 12.64949 | 28292 ft | 483 kts | 120° |
| 2026-04-30 12:54 | 44.35094 | 12.68960 | 28526 ft | 486 kts | 120° |
| 2026-04-30 12:54 | 44.33321 | 12.72986 | 28748 ft | 488 kts | 120° |
| 2026-04-30 12:54 | 44.31536 | 12.77039 | 28958 ft | 490 kts | 120° |
| 2026-04-30 12:55 | 44.29746 | 12.81098 | 29175 ft | 493 kts | 121° |
| 2026-04-30 12:55 | 44.27937 | 12.85197 | 29402 ft | 496 kts | 121° |
| 2026-04-30 12:55 | 44.26149 | 12.89242 | 29691 ft | 496 kts | 121° |
| 2026-04-30 12:55 | 44.24336 | 12.93337 | 30018 ft | 497 kts | 121° |
| 2026-04-30 12:56 | 44.22519 | 12.97434 | 30324 ft | 497 kts | 121° |
| 2026-04-30 12:56 | 44.20701 | 13.01523 | 30585 ft | 497 kts | 121° |
| 2026-04-30 12:56 | 44.18871 | 13.05626 | 30861 ft | 498 kts | 121° |
| 2026-04-30 12:56 | 44.17041 | 13.09719 | 31129 ft | 498 kts | 121° |
| 2026-04-30 12:57 | 44.15210 | 13.13813 | 31398 ft | 498 kts | 121° |
| 2026-04-30 12:57 | 44.13376 | 13.17907 | 31666 ft | 498 kts | 121° |
| 2026-04-30 12:57 | 44.11540 | 13.22000 | 31939 ft | 499 kts | 121° |
| 2026-04-30 12:57 | 44.09707 | 13.26093 | 32199 ft | 499 kts | 121° |
| 2026-04-30 12:58 | 44.07871 | 13.30194 | 32451 ft | 499 kts | 121° |
| 2026-04-30 12:58 | 44.06034 | 13.34291 | 32699 ft | 500 kts | 122° |
| 2026-04-30 12:58 | 44.04191 | 13.38391 | 32951 ft | 500 kts | 122° |
| 2026-04-30 12:58 | 44.02342 | 13.42492 | 33188 ft | 501 kts | 122° |
| 2026-04-30 12:59 | 43.98659 | 13.50629 | 33260 ft | 497 kts | 122° |
| 2026-04-30 12:59 | 43.94976 | 13.58737 | 33262 ft | 496 kts | 122° |
| 2026-04-30 13:00 | 43.91291 | 13.66835 | 33263 ft | 496 kts | 122° |
| 2026-04-30 13:00 | 43.87623 | 13.74886 | 33263 ft | 497 kts | 122° |
| 2026-04-30 13:01 | 43.83919 | 13.82989 | 33258 ft | 497 kts | 122° |
| 2026-04-30 13:01 | 43.80217 | 13.91072 | 33257 ft | 497 kts | 122° |
| 2026-04-30 13:02 | 43.76509 | 13.99141 | 33251 ft | 497 kts | 122° |
| 2026-04-30 13:02 | 43.72788 | 14.07205 | 33240 ft | 498 kts | 123° |
| 2026-04-30 13:03 | 43.69058 | 14.15271 | 33240 ft | 498 kts | 123° |
| 2026-04-30 13:03 | 43.65326 | 14.23335 | 33239 ft | 499 kts | 123° |
| 2026-04-30 13:04 | 43.61587 | 14.31399 | 33244 ft | 499 kts | 123° |
| 2026-04-30 13:04 | 43.57825 | 14.39450 | 33240 ft | 499 kts | 123° |
| 2026-04-30 13:05 | 43.54121 | 14.47557 | 33239 ft | 500 kts | 121° |
| 2026-04-30 13:06 | 43.49035 | 14.60049 | 33233 ft | 500 kts | 119° |
| 2026-04-30 13:06 | 43.45632 | 14.68415 | 33231 ft | 501 kts | 120° |
| 2026-04-30 13:07 | 43.42142 | 14.76717 | 33226 ft | 501 kts | 120° |
| 2026-04-30 13:07 | 43.38626 | 14.85003 | 33220 ft | 501 kts | 121° |
| 2026-04-30 13:08 | 43.35114 | 14.93296 | 33214 ft | 502 kts | 120° |
| 2026-04-30 13:08 | 43.31605 | 15.01593 | 33214 ft | 502 kts | 121° |
| 2026-04-30 13:09 | 43.28110 | 15.09821 | 33210 ft | 502 kts | 121° |
| 2026-04-30 13:09 | 43.24587 | 15.18090 | 33204 ft | 502 kts | 121° |
| 2026-04-30 13:10 | 43.21047 | 15.26355 | 33196 ft | 502 kts | 121° |
| 2026-04-30 13:10 | 43.17510 | 15.34616 | 33187 ft | 502 kts | 121° |
| 2026-04-30 13:11 | 43.13970 | 15.42873 | 33181 ft | 503 kts | 121° |
| 2026-04-30 13:11 | 43.10412 | 15.51121 | 33183 ft | 503 kts | 121° |
| 2026-04-30 13:12 | 43.06848 | 15.59365 | 33177 ft | 503 kts | 121° |
| 2026-04-30 13:12 | 43.03302 | 15.67560 | 33159 ft | 504 kts | 122° |
| 2026-04-30 13:13 | 42.97936 | 15.79927 | 33166 ft | 505 kts | 122° |
| 2026-04-30 13:14 | 42.92532 | 15.92296 | 33156 ft | 505 kts | 122° |
| 2026-04-30 13:14 | 42.87112 | 16.04636 | 33140 ft | 506 kts | 122° |
| 2026-04-30 13:15 | 42.81674 | 16.16987 | 33154 ft | 507 kts | 122° |
| 2026-04-30 13:16 | 42.78062 | 16.25177 | 33147 ft | 508 kts | 122° |
| 2026-04-30 13:16 | 42.74416 | 16.33423 | 33150 ft | 509 kts | 123° |
| 2026-04-30 13:17 | 42.68912 | 16.45787 | 33153 ft | 509 kts | 123° |
| 2026-04-30 13:18 | 42.63392 | 16.58136 | 33152 ft | 510 kts | 123° |
| 2026-04-30 13:18 | 42.57863 | 16.70497 | 33129 ft | 511 kts | 124° |
| 2026-04-30 13:19 | 42.54160 | 16.78725 | 33128 ft | 511 kts | 124° |
| 2026-04-30 13:19 | 42.50443 | 16.86954 | 33127 ft | 511 kts | 124° |
| 2026-04-30 13:20 | 42.46728 | 16.95172 | 33123 ft | 512 kts | 124° |
| 2026-04-30 13:20 | 42.42994 | 17.03400 | 33121 ft | 513 kts | 124° |
| 2026-04-30 13:21 | 42.39252 | 17.11622 | 33120 ft | 514 kts | 124° |
| 2026-04-30 13:22 | 42.33650 | 17.23903 | 33115 ft | 514 kts | 124° |
| 2026-04-30 13:22 | 42.27991 | 17.36231 | 33112 ft | 515 kts | 125° |
| 2026-04-30 13:23 | 42.22328 | 17.48557 | 33117 ft | 515 kts | 125° |
| 2026-04-30 13:24 | 42.14744 | 17.64953 | 33118 ft | 515 kts | 125° |
| 2026-04-30 13:25 | 42.07132 | 17.81308 | 33121 ft | 515 kts | 125° |
| 2026-04-30 13:26 | 41.97629 | 18.01621 | 33126 ft | 513 kts | 126° |
| 2026-04-30 13:28 | 41.88102 | 18.21870 | 33133 ft | 512 kts | 126° |
| 2026-04-30 13:28 | 41.82372 | 18.33967 | 33127 ft | 511 kts | 126° |
| 2026-04-30 13:29 | 41.74755 | 18.49957 | 33123 ft | 509 kts | 126° |
| 2026-04-30 13:31 | 41.65218 | 18.69896 | 33117 ft | 508 kts | 126° |
| 2026-04-30 13:32 | 41.55694 | 18.89684 | 33105 ft | 505 kts | 126° |
| 2026-04-30 13:33 | 41.48066 | 19.05404 | 33094 ft | 504 kts | 127° |
| 2026-04-30 13:34 | 41.42304 | 19.17051 | 33093 ft | 503 kts | 128° |
| 2026-04-30 13:35 | 41.34347 | 19.32386 | 33106 ft | 502 kts | 128° |
| 2026-04-30 13:36 | 41.26446 | 19.47702 | 33081 ft | 501 kts | 128° |
| 2026-04-30 13:36 | 41.20520 | 19.59149 | 33086 ft | 501 kts | 128° |
| 2026-04-30 13:37 | 41.14614 | 19.70510 | 33077 ft | 500 kts | 128° |
| 2026-04-30 13:38 | 41.08666 | 19.81890 | 33064 ft | 500 kts | 128° |
| 2026-04-30 13:39 | 41.01394 | 19.95748 | 33070 ft | 500 kts | 128° |
| 2026-04-30 13:40 | 40.95445 | 20.07068 | 33064 ft | 499 kts | 128° |
| 2026-04-30 13:40 | 40.91472 | 20.14584 | 33062 ft | 499 kts | 128° |
| 2026-04-30 13:41 | 40.87495 | 20.22093 | 33060 ft | 498 kts | 128° |
| 2026-04-30 13:41 | 40.83514 | 20.29593 | 33063 ft | 497 kts | 128° |
| 2026-04-30 13:42 | 40.79565 | 20.37015 | 33056 ft | 497 kts | 128° |
| 2026-04-30 13:42 | 40.73603 | 20.48195 | 33059 ft | 496 kts | 128° |
| 2026-04-30 13:43 | 40.69639 | 20.55626 | 33051 ft | 495 kts | 128° |
| 2026-04-30 13:43 | 40.65665 | 20.63033 | 33046 ft | 496 kts | 129° |
| 2026-04-30 13:44 | 40.61676 | 20.70435 | 33054 ft | 495 kts | 128° |
| 2026-04-30 13:44 | 40.57693 | 20.77824 | 33054 ft | 494 kts | 128° |
| 2026-04-30 13:45 | 40.51727 | 20.88853 | 33051 ft | 492 kts | 128° |
| 2026-04-30 13:46 | 40.47591 | 20.95965 | 33052 ft | 487 kts | 137° |
| 2026-04-30 13:46 | 40.42616 | 21.01894 | 33046 ft | 482 kts | 143° |
| 2026-04-30 13:47 | 40.37580 | 21.07701 | 33035 ft | 482 kts | 143° |
| 2026-04-30 13:47 | 40.32546 | 21.13499 | 33030 ft | 480 kts | 143° |
| 2026-04-30 13:48 | 40.27526 | 21.19263 | 33031 ft | 480 kts | 143° |
| 2026-04-30 13:48 | 40.22504 | 21.25015 | 33029 ft | 479 kts | 143° |
| 2026-04-30 13:49 | 40.17486 | 21.30745 | 33026 ft | 479 kts | 143° |
| 2026-04-30 13:49 | 40.12473 | 21.36470 | 33030 ft | 478 kts | 143° |
| 2026-04-30 13:50 | 40.07495 | 21.42148 | 33027 ft | 477 kts | 143° |
| 2026-04-30 13:50 | 39.99975 | 21.50682 | 33018 ft | 476 kts | 143° |
| 2026-04-30 13:51 | 39.94977 | 21.56340 | 32996 ft | 475 kts | 143° |
| 2026-04-30 13:51 | 39.89996 | 21.61983 | 33001 ft | 474 kts | 143° |
| 2026-04-30 13:52 | 39.85018 | 21.67608 | 33000 ft | 473 kts | 143° |
| 2026-04-30 13:52 | 39.80035 | 21.73214 | 32994 ft | 473 kts | 143° |
| 2026-04-30 13:53 | 39.75057 | 21.78799 | 33002 ft | 473 kts | 143° |
| 2026-04-30 13:53 | 39.70085 | 21.84368 | 32985 ft | 470 kts | 143° |
| 2026-04-30 13:54 | 39.65730 | 21.90725 | 32977 ft | 476 kts | 128° |
| 2026-04-30 13:54 | 39.61914 | 21.97680 | 32969 ft | 476 kts | 128° |
| 2026-04-30 13:55 | 39.58062 | 22.04698 | 32963 ft | 476 kts | 128° |
| 2026-04-30 13:55 | 39.54205 | 22.11693 | 32959 ft | 477 kts | 128° |
| 2026-04-30 13:56 | 39.50335 | 22.18682 | 32957 ft | 477 kts | 128° |
| 2026-04-30 13:56 | 39.46467 | 22.25670 | 32966 ft | 478 kts | 128° |
| 2026-04-30 13:57 | 39.42590 | 22.32648 | 32971 ft | 477 kts | 128° |
| 2026-04-30 13:57 | 39.38702 | 22.39619 | 32981 ft | 477 kts | 128° |
| 2026-04-30 13:58 | 39.32884 | 22.50048 | 33004 ft | 476 kts | 128° |
| 2026-04-30 13:59 | 39.29006 | 22.56985 | 32984 ft | 476 kts | 128° |
| 2026-04-30 13:59 | 39.25139 | 22.63898 | 32980 ft | 475 kts | 128° |
| 2026-04-30 14:00 | 39.21266 | 22.70790 | 32980 ft | 474 kts | 128° |
| 2026-04-30 14:00 | 39.15444 | 22.81121 | 32972 ft | 474 kts | 129° |
| 2026-04-30 14:01 | 39.11583 | 22.87934 | 32974 ft | 474 kts | 129° |
| 2026-04-30 14:01 | 39.07703 | 22.94800 | 32971 ft | 474 kts | 129° |
| 2026-04-30 14:02 | 39.03819 | 23.01653 | 32977 ft | 475 kts | 129° |
| 2026-04-30 14:02 | 38.99913 | 23.08528 | 32983 ft | 476 kts | 129° |
| 2026-04-30 14:03 | 38.96005 | 23.15384 | 32992 ft | 475 kts | 129° |
| 2026-04-30 14:03 | 38.92088 | 23.22235 | 32993 ft | 475 kts | 129° |
| 2026-04-30 14:04 | 38.88169 | 23.29073 | 32986 ft | 475 kts | 129° |
| 2026-04-30 14:04 | 38.84249 | 23.35895 | 32987 ft | 475 kts | 129° |
| 2026-04-30 14:05 | 38.80326 | 23.42731 | 32993 ft | 475 kts | 129° |
| 2026-04-30 14:05 | 38.76419 | 23.49520 | 32996 ft | 475 kts | 129° |
| 2026-04-30 14:06 | 38.70527 | 23.59729 | 32994 ft | 475 kts | 129° |
| 2026-04-30 14:07 | 38.64620 | 23.69927 | 32998 ft | 475 kts | 129° |
| 2026-04-30 14:08 | 38.58702 | 23.80098 | 33002 ft | 475 kts | 130° |
| 2026-04-30 14:08 | 38.52769 | 23.90271 | 33000 ft | 476 kts | 130° |
| 2026-04-30 14:09 | 38.48816 | 23.97042 | 32994 ft | 476 kts | 130° |
| 2026-04-30 14:10 | 38.42888 | 24.07179 | 32983 ft | 475 kts | 130° |
| 2026-04-30 14:10 | 38.38920 | 24.13916 | 32988 ft | 475 kts | 130° |
| 2026-04-30 14:11 | 38.34941 | 24.20661 | 32989 ft | 476 kts | 130° |
| 2026-04-30 14:11 | 38.30969 | 24.27400 | 32989 ft | 476 kts | 130° |
| 2026-04-30 14:12 | 38.26979 | 24.34156 | 33004 ft | 478 kts | 130° |
| 2026-04-30 14:12 | 38.23017 | 24.40853 | 33012 ft | 476 kts | 130° |
| 2026-04-30 14:13 | 38.19022 | 24.47595 | 33022 ft | 477 kts | 130° |
| 2026-04-30 14:13 | 38.15027 | 24.54314 | 33026 ft | 476 kts | 130° |
| 2026-04-30 14:14 | 38.11025 | 24.61019 | 33020 ft | 476 kts | 130° |
| 2026-04-30 14:14 | 38.07021 | 24.67723 | 33016 ft | 476 kts | 130° |
| 2026-04-30 14:15 | 38.03010 | 24.74424 | 33015 ft | 476 kts | 130° |
| 2026-04-30 14:15 | 37.99005 | 24.81100 | 33008 ft | 475 kts | 130° |
| 2026-04-30 14:16 | 37.94992 | 24.87761 | 33002 ft | 475 kts | 130° |
| 2026-04-30 14:16 | 37.90972 | 24.94434 | 33013 ft | 479 kts | 130° |
| 2026-04-30 14:17 | 37.86950 | 25.01105 | 33007 ft | 475 kts | 130° |
| 2026-04-30 14:17 | 37.82934 | 25.07737 | 32993 ft | 475 kts | 130° |
| 2026-04-30 14:18 | 37.78921 | 25.14367 | 33000 ft | 475 kts | 130° |
| 2026-04-30 14:18 | 37.72896 | 25.24310 | 32988 ft | 473 kts | 130° |
| 2026-04-30 14:19 | 37.66881 | 25.34189 | 32987 ft | 473 kts | 131° |
| 2026-04-30 14:20 | 37.62889 | 25.40710 | 32982 ft | 473 kts | 131° |
| 2026-04-30 14:20 | 37.56848 | 25.50580 | 32985 ft | 474 kts | 131° |
| 2026-04-30 14:21 | 37.52810 | 25.57154 | 32975 ft | 476 kts | 130° |
| 2026-04-30 14:21 | 37.48707 | 25.63811 | 31291 ft | 489 kts | 130° |
| 2026-04-30 14:22 | 37.46621 | 25.67205 | 30492 ft | 490 kts | 130° |
| 2026-04-30 14:22 | 37.42477 | 25.73945 | 29287 ft | 483 kts | 130° |
| 2026-04-30 14:22 | 37.41121 | 25.76145 | 28900 ft | 480 kts | 130° |
| 2026-04-30 14:23 | 37.37068 | 25.82711 | 27752 ft | 471 kts | 130° |
| 2026-04-30 14:23 | 37.33071 | 25.89143 | 26634 ft | 462 kts | 130° |
| 2026-04-30 14:24 | 37.29145 | 25.95455 | 25554 ft | 454 kts | 130° |
| 2026-04-30 14:24 | 37.27209 | 25.98567 | 25029 ft | 450 kts | 130° |
| 2026-04-30 14:25 | 37.23397 | 26.04688 | 23799 ft | 440 kts | 129° |
| 2026-04-30 14:25 | 37.19675 | 26.10664 | 22634 ft | 426 kts | 129° |
| 2026-04-30 14:26 | 37.16089 | 26.16406 | 21677 ft | 413 kts | 130° |
| 2026-04-30 14:26 | 37.14327 | 26.19218 | 21213 ft | 408 kts | 129° |
| 2026-04-30 14:26 | 37.10855 | 26.24757 | 20276 ft | 400 kts | 129° |
| 2026-04-30 14:27 | 37.09143 | 26.27483 | 19797 ft | 397 kts | 129° |
| 2026-04-30 14:27 | 37.07437 | 26.30201 | 19327 ft | 395 kts | 129° |
| 2026-04-30 14:27 | 37.05743 | 26.32894 | 18853 ft | 393 kts | 129° |
| 2026-04-30 14:28 | 37.02380 | 26.38245 | 17872 ft | 389 kts | 129° |
| 2026-04-30 14:28 | 37.00740 | 26.40861 | 17402 ft | 385 kts | 129° |
| 2026-04-30 14:28 | 36.99091 | 26.43488 | 16960 ft | 382 kts | 129° |
| 2026-04-30 14:28 | 36.97456 | 26.46094 | 16489 ft | 379 kts | 129° |
| 2026-04-30 14:29 | 36.94222 | 26.51232 | 15597 ft | 373 kts | 130° |
| 2026-04-30 14:29 | 36.91014 | 26.56274 | 14719 ft | 368 kts | 130° |
| 2026-04-30 14:30 | 36.86278 | 26.63736 | 13379 ft | 361 kts | 130° |
| 2026-04-30 14:31 | 36.83183 | 26.68623 | 12465 ft | 356 kts | 130° |
| 2026-04-30 14:31 | 36.79983 | 26.73263 | 11616 ft | 349 kts | 134° |
| 2026-04-30 14:31 | 36.78501 | 26.75622 | 11330 ft | 344 kts | 124° |
| 2026-04-30 14:32 | 36.75919 | 26.80633 | 10408 ft | 343 kts | 123° |
| 2026-04-30 14:32 | 36.74663 | 26.83089 | 10246 ft | 324 kts | 123° |
| 2026-04-30 14:32 | 36.73491 | 26.85385 | 10028 ft | 308 kts | 123° |
| 2026-04-30 14:33 | 36.72351 | 26.87610 | 9760 ft | 301 kts | 123° |
| 2026-04-30 14:33 | 36.70092 | 26.92001 | 9122 ft | 300 kts | 123° |
| 2026-04-30 14:33 | 36.68963 | 26.94191 | 8623 ft | 303 kts | 123° |
| 2026-04-30 14:34 | 36.67839 | 26.96377 | 8377 ft | 297 kts | 123° |
| 2026-04-30 14:34 | 36.66732 | 26.98536 | 8022 ft | 294 kts | 123° |
| 2026-04-30 14:34 | 36.65630 | 27.00679 | 7647 ft | 292 kts | 123° |
| 2026-04-30 14:34 | 36.64548 | 27.02775 | 7270 ft | 289 kts | 123° |
| 2026-04-30 14:35 | 36.62387 | 27.06950 | 6027 ft | 276 kts | 122° |
| 2026-04-30 14:35 | 36.61398 | 27.08871 | 5872 ft | 251 kts | 122° |
| 2026-04-30 14:35 | 36.60489 | 27.10632 | 5769 ft | 239 kts | 122° |
| 2026-04-30 14:36 | 36.59830 | 27.12502 | 5670 ft | 235 kts | 101° |
| 2026-04-30 14:36 | 36.59786 | 27.14515 | 5402 ft | 234 kts | 78° |
| 2026-04-30 14:36 | 36.60297 | 27.16430 | 5043 ft | 233 kts | 68° |
| 2026-04-30 14:36 | 36.60888 | 27.18314 | 4692 ft | 234 kts | 68° |
| 2026-04-30 14:37 | 36.61708 | 27.20020 | 4300 ft | 227 kts | 40° |
| 2026-04-30 14:37 | 36.63067 | 27.20849 | 4004 ft | 215 kts | 8° |
| 2026-04-30 14:37 | 36.64489 | 27.20678 | 3714 ft | 201 kts | 338° |
| 2026-04-30 14:37 | 36.65664 | 27.19832 | 3440 ft | 191 kts | 326° |
| 2026-04-30 14:38 | 36.66770 | 27.18965 | 3158 ft | 185 kts | 327° |
| 2026-04-30 14:38 | 36.67848 | 27.18128 | 2876 ft | 180 kts | 327° |
| 2026-04-30 14:38 | 36.68903 | 27.17310 | 2630 ft | 176 kts | 327° |
| 2026-04-30 14:38 | 36.69930 | 27.16510 | 2390 ft | 172 kts | 327° |
| 2026-04-30 14:39 | 36.70925 | 27.15737 | 2172 ft | 164 kts | 327° |
| 2026-04-30 14:39 | 36.71896 | 27.14985 | 1940 ft | 164 kts | 326° |
| 2026-04-30 14:39 | 36.72837 | 27.14257 | 1722 ft | 154 kts | 327° |
| 2026-04-30 14:40 | 36.74607 | 27.12884 | 1319 ft | 149 kts | 326° |
| 2026-04-30 14:40 | 36.75477 | 27.12210 | 1116 ft | 147 kts | 326° |
| 2026-04-30 14:40 | 36.76339 | 27.11532 | 940 ft | 147 kts | 324° |
| 2026-04-30 14:40 | 36.77209 | 27.10854 | 825 ft | 148 kts | 327° |
| 2026-04-30 14:41 | 36.78084 | 27.10194 | 568 ft | 147 kts | 326° |
| 2026-04-30 14:41 | 36.78933 | 27.09525 | 403 ft | 138 kts | 326° |
| 2026-04-30 14:41 | 36.79599 | 27.09003 | 414 ft | 84 kts | 328° |
| 2026-04-30 14:41 | 36.79991 | 27.08698 | 415 ft | 60 kts | 328° |
| 2026-04-30 14:42 | 36.80247 | 27.08499 | 412 ft | 26 kts | 329° |
| 2026-04-30 14:42 | 36.80349 | 27.08472 | 416 ft | 10 kts | 48° |
| 2026-04-30 14:42 | 36.80348 | 27.08545 | 414 ft | 6 kts | 102° |
| 2026-04-30 14:42 | 36.80347 | 27.08549 | 416 ft | 0 kts | 102° |
| 2026-04-30 14:43 | 36.80343 | 27.08574 | 421 ft | 8 kts | 101° |
| 2026-04-30 14:43 | 36.80335 | 27.08624 | 421 ft | 0 kts | 101° |
| 2026-04-30 14:43 | 36.80329 | 27.08653 | 418 ft | 4 kts | 110° |
| 2026-04-30 14:44 | 36.80315 | 27.08680 | 412 ft | 6 kts | 132° |
| 2026-04-30 14:44 | 36.80275 | 27.08717 | 413 ft | 0 kts | 148° |
| 2026-04-30 14:44 | 36.80254 | 27.08734 | 417 ft | 14 kts | 148° |
| 2026-04-30 14:44 | 36.80197 | 27.08778 | 414 ft | 7 kts | 148° |
| 2026-04-30 14:45 | 36.80151 | 27.08820 | 415 ft | 2 kts | 120° |
| 2026-04-30 14:45 | 36.80151 | 27.08839 | 410 ft | 5 kts | 81° |
| 2026-04-30 14:45 | 36.80167 | 27.08875 | 412 ft | 4 kts | 58° |
| 2026-04-30 14:45 | 36.80178 | 27.08896 | 414 ft | 1 kts | 58° |
| 2026-04-30 14:46 | 36.80181 | 27.08902 | 413 ft | 0 kts | 58° |
| 2026-04-30 14:46 | 36.80181 | 27.08903 | 413 ft | 0 kts | 58° |